sensor_id;sensor_type;location;lat;lon;timestamp;temperature;humidity
56729;DHT22;42612;52.232;7.560;2023-09-30T00:01:01;18.90;57.20
56729;DHT22;42612;52.232;7.560;2023-09-30T00:03:27;18.90;57.20
56729;DHT22;42612;52.232;7.560;2023-09-30T00:05:53;18.90;57.20
56729;DHT22;42612;52.232;7.560;2023-09-30T00:08:18;18.90;57.20
56729;DHT22;42612;52.232;7.560;2023-09-30T00:11:07;18.80;57.20
56729;DHT22;42612;52.232;7.560;2023-09-30T00:13:33;18.90;57.20
56729;DHT22;42612;52.232;7.560;2023-09-30T00:15:59;18.80;57.20
56729;DHT22;42612;52.232;7.560;2023-09-30T00:18:24;18.80;57.10
56729;DHT22;42612;52.232;7.560;2023-09-30T00:20:50;18.80;57.10
56729;DHT22;42612;52.232;7.560;2023-09-30T00:23:16;18.80;57.10
56729;DHT22;42612;52.232;7.560;2023-09-30T00:25:41;18.80;57.10
56729;DHT22;42612;52.232;7.560;2023-09-30T00:28:07;18.80;57.20
56729;DHT22;42612;52.232;7.560;2023-09-30T00:30:33;18.80;57.20
56729;DHT22;42612;52.232;7.560;2023-09-30T00:32:59;18.70;57.10
56729;DHT22;42612;52.232;7.560;2023-09-30T00:35:24;18.70;57.10
56729;DHT22;42612;52.232;7.560;2023-09-30T00:37:50;18.70;57.10
56729;DHT22;42612;52.232;7.560;2023-09-30T00:40:16;18.70;57.20
56729;DHT22;42612;52.232;7.560;2023-09-30T00:42:42;18.70;57.20
56729;DHT22;42612;52.232;7.560;2023-09-30T00:45:08;18.60;57.20
56729;DHT22;42612;52.232;7.560;2023-09-30T00:47:35;18.70;57.20
56729;DHT22;42612;52.232;7.560;2023-09-30T00:50:01;18.70;57.30
56729;DHT22;42612;52.232;7.560;2023-09-30T00:52:29;18.70;57.30
56729;DHT22;42612;52.232;7.560;2023-09-30T00:54:56;18.70;57.30
56729;DHT22;42612;52.232;7.560;2023-09-30T00:57:22;18.60;57.30
56729;DHT22;42612;52.232;7.560;2023-09-30T00:59:50;18.60;57.30
56729;DHT22;42612;52.232;7.560;2023-09-30T01:02:16;18.70;57.30
56729;DHT22;42612;52.232;7.560;2023-09-30T01:04:43;18.70;57.30
56729;DHT22;42612;52.232;7.560;2023-09-30T01:07:08;18.70;57.30
56729;DHT22;42612;52.232;7.560;2023-09-30T01:09:34;18.70;57.30
56729;DHT22;42612;52.232;7.560;2023-09-30T01:12:01;18.70;57.30
56729;DHT22;42612;52.232;7.560;2023-09-30T01:14:32;18.60;57.30
56729;DHT22;42612;52.232;7.560;2023-09-30T01:17:00;18.60;57.30
56729;DHT22;42612;52.232;7.560;2023-09-30T01:19:25;18.60;57.40
56729;DHT22;42612;52.232;7.560;2023-09-30T01:21:54;18.70;57.50
56729;DHT22;42612;52.232;7.560;2023-09-30T01:24:28;18.70;57.30
56729;DHT22;42612;52.232;7.560;2023-09-30T01:26:54;18.70;57.30
56729;DHT22;42612;52.232;7.560;2023-09-30T01:29:20;18.70;57.30
56729;DHT22;42612;52.232;7.560;2023-09-30T01:31:47;18.70;57.30
56729;DHT22;42612;52.232;7.560;2023-09-30T01:34:13;18.70;57.30
56729;DHT22;42612;52.232;7.560;2023-09-30T01:36:39;18.70;57.40
56729;DHT22;42612;52.232;7.560;2023-09-30T01:39:05;18.80;57.50
56729;DHT22;42612;52.232;7.560;2023-09-30T01:41:32;18.70;57.40
56729;DHT22;42612;52.232;7.560;2023-09-30T01:43:58;18.60;57.40
56729;DHT22;42612;52.232;7.560;2023-09-30T01:46:23;18.60;57.30
56729;DHT22;42612;52.232;7.560;2023-09-30T01:48:49;18.60;57.20
56729;DHT22;42612;52.232;7.560;2023-09-30T01:51:15;18.60;57.20
56729;DHT22;42612;52.232;7.560;2023-09-30T01:53:41;18.60;57.20
56729;DHT22;42612;52.232;7.560;2023-09-30T01:56:08;18.70;57.20
56729;DHT22;42612;52.232;7.560;2023-09-30T01:58:33;18.60;57.20
56729;DHT22;42612;52.232;7.560;2023-09-30T02:01:05;18.60;57.20
56729;DHT22;42612;52.232;7.560;2023-09-30T02:03:31;18.50;57.10
56729;DHT22;42612;52.232;7.560;2023-09-30T02:05:57;18.50;57.20
56729;DHT22;42612;52.232;7.560;2023-09-30T02:08:23;18.60;57.20
56729;DHT22;42612;52.232;7.560;2023-09-30T02:10:49;18.50;57.20
56729;DHT22;42612;52.232;7.560;2023-09-30T02:13:16;18.50;57.20
56729;DHT22;42612;52.232;7.560;2023-09-30T02:15:43;18.50;57.20
56729;DHT22;42612;52.232;7.560;2023-09-30T02:18:08;18.50;57.20
56729;DHT22;42612;52.232;7.560;2023-09-30T02:20:35;18.50;57.30
56729;DHT22;42612;52.232;7.560;2023-09-30T02:23:05;18.50;57.20
56729;DHT22;42612;52.232;7.560;2023-09-30T02:25:31;18.40;57.10
56729;DHT22;42612;52.232;7.560;2023-09-30T02:27:57;18.40;57.10
56729;DHT22;42612;52.232;7.560;2023-09-30T02:30:22;18.40;57.10
56729;DHT22;42612;52.232;7.560;2023-09-30T02:32:49;18.40;57.20
56729;DHT22;42612;52.232;7.560;2023-09-30T02:35:14;18.40;57.20
56729;DHT22;42612;52.232;7.560;2023-09-30T02:37:40;18.30;57.20
56729;DHT22;42612;52.232;7.560;2023-09-30T02:40:06;18.40;57.30
56729;DHT22;42612;52.232;7.560;2023-09-30T02:42:38;18.30;57.30
56729;DHT22;42612;52.232;7.560;2023-09-30T02:45:07;18.40;57.40
56729;DHT22;42612;52.232;7.560;2023-09-30T02:47:33;18.30;57.40
56729;DHT22;42612;52.232;7.560;2023-09-30T02:49:59;18.40;57.40
56729;DHT22;42612;52.232;7.560;2023-09-30T02:52:25;18.30;57.70
56729;DHT22;42612;52.232;7.560;2023-09-30T02:54:51;18.40;57.30
56729;DHT22;42612;52.232;7.560;2023-09-30T02:57:17;18.30;57.20
56729;DHT22;42612;52.232;7.560;2023-09-30T02:59:43;18.30;57.10
56729;DHT22;42612;52.232;7.560;2023-09-30T03:02:10;18.30;57.10
56729;DHT22;42612;52.232;7.560;2023-09-30T03:04:36;18.30;57.10
56729;DHT22;42612;52.232;7.560;2023-09-30T03:07:02;18.20;57.00
56729;DHT22;42612;52.232;7.560;2023-09-30T03:09:28;18.30;57.10
56729;DHT22;42612;52.232;7.560;2023-09-30T03:11:53;18.20;57.00
56729;DHT22;42612;52.232;7.560;2023-09-30T03:14:21;18.20;57.10
56729;DHT22;42612;52.232;7.560;2023-09-30T03:16:48;18.20;57.10
56729;DHT22;42612;52.232;7.560;2023-09-30T03:19:14;18.10;57.00
56729;DHT22;42612;52.232;7.560;2023-09-30T03:21:41;18.10;57.00
56729;DHT22;42612;52.232;7.560;2023-09-30T03:24:08;18.10;57.00
56729;DHT22;42612;52.232;7.560;2023-09-30T03:26:34;18.10;56.90
56729;DHT22;42612;52.232;7.560;2023-09-30T03:28:59;18.10;57.00
56729;DHT22;42612;52.232;7.560;2023-09-30T03:31:25;18.10;57.10
56729;DHT22;42612;52.232;7.560;2023-09-30T03:33:51;18.20;57.10
56729;DHT22;42612;52.232;7.560;2023-09-30T03:36:22;18.10;57.10
56729;DHT22;42612;52.232;7.560;2023-09-30T03:38:52;18.00;57.10
56729;DHT22;42612;52.232;7.560;2023-09-30T03:41:21;18.10;57.20
56729;DHT22;42612;52.232;7.560;2023-09-30T03:43:46;18.10;57.10
56729;DHT22;42612;52.232;7.560;2023-09-30T03:46:14;18.00;57.10
56729;DHT22;42612;52.232;7.560;2023-09-30T03:48:41;18.00;57.10
56729;DHT22;42612;52.232;7.560;2023-09-30T03:51:11;18.00;57.10
56729;DHT22;42612;52.232;7.560;2023-09-30T03:53:46;17.90;57.10
56729;DHT22;42612;52.232;7.560;2023-09-30T03:56:12;17.90;57.10
56729;DHT22;42612;52.232;7.560;2023-09-30T03:58:41;17.90;57.10
56729;DHT22;42612;52.232;7.560;2023-09-30T04:01:08;17.90;57.20
56729;DHT22;42612;52.232;7.560;2023-09-30T04:03:36;17.90;57.20
56729;DHT22;42612;52.232;7.560;2023-09-30T04:06:04;17.80;57.10
56729;DHT22;42612;52.232;7.560;2023-09-30T04:08:30;17.90;57.10
56729;DHT22;42612;52.232;7.560;2023-09-30T04:10:59;17.90;57.10
56729;DHT22;42612;52.232;7.560;2023-09-30T04:13:25;17.90;57.10
56729;DHT22;42612;52.232;7.560;2023-09-30T04:15:51;17.80;56.90
56729;DHT22;42612;52.232;7.560;2023-09-30T04:18:16;17.80;56.90
56729;DHT22;42612;52.232;7.560;2023-09-30T04:20:45;17.80;56.90
56729;DHT22;42612;52.232;7.560;2023-09-30T04:23:11;17.90;57.00
56729;DHT22;42612;52.232;7.560;2023-09-30T04:25:38;17.70;56.90
56729;DHT22;42612;52.232;7.560;2023-09-30T04:28:04;17.70;56.90
56729;DHT22;42612;52.232;7.560;2023-09-30T04:30:29;17.70;57.00
56729;DHT22;42612;52.232;7.560;2023-09-30T04:32:58;17.80;57.10
56729;DHT22;42612;52.232;7.560;2023-09-30T04:35:24;17.70;57.10
56729;DHT22;42612;52.232;7.560;2023-09-30T04:37:51;17.70;57.10
56729;DHT22;42612;52.232;7.560;2023-09-30T04:40:17;17.80;57.10
56729;DHT22;42612;52.232;7.560;2023-09-30T04:42:45;17.60;57.00
56729;DHT22;42612;52.232;7.560;2023-09-30T04:45:12;17.60;57.00
56729;DHT22;42612;52.232;7.560;2023-09-30T04:47:38;17.60;57.00
56729;DHT22;42612;52.232;7.560;2023-09-30T04:50:07;17.60;57.00
56729;DHT22;42612;52.232;7.560;2023-09-30T04:52:37;17.60;57.10
56729;DHT22;42612;52.232;7.560;2023-09-30T04:55:04;17.60;57.10
56729;DHT22;42612;52.232;7.560;2023-09-30T04:57:30;17.50;57.10
56729;DHT22;42612;52.232;7.560;2023-09-30T04:59:57;17.60;57.20
56729;DHT22;42612;52.232;7.560;2023-09-30T05:02:23;17.50;57.20
56729;DHT22;42612;52.232;7.560;2023-09-30T05:04:49;17.70;57.40
56729;DHT22;42612;52.232;7.560;2023-09-30T05:07:15;17.60;57.30
56729;DHT22;42612;52.232;7.560;2023-09-30T05:09:40;17.60;57.30
56729;DHT22;42612;52.232;7.560;2023-09-30T05:12:07;17.60;57.30
56729;DHT22;42612;52.232;7.560;2023-09-30T05:14:33;17.50;57.30
56729;DHT22;42612;52.232;7.560;2023-09-30T05:17:00;17.50;57.30
56729;DHT22;42612;52.232;7.560;2023-09-30T05:19:25;17.60;57.40
56729;DHT22;42612;52.232;7.560;2023-09-30T05:21:51;17.60;57.40
56729;DHT22;42612;52.232;7.560;2023-09-30T05:24:17;17.50;57.40
56729;DHT22;42612;52.232;7.560;2023-09-30T05:26:46;17.50;57.40
56729;DHT22;42612;52.232;7.560;2023-09-30T05:29:12;17.50;57.40
56729;DHT22;42612;52.232;7.560;2023-09-30T05:31:37;17.50;57.30
56729;DHT22;42612;52.232;7.560;2023-09-30T05:34:04;17.50;57.20
56729;DHT22;42612;52.232;7.560;2023-09-30T05:36:29;17.50;57.20
56729;DHT22;42612;52.232;7.560;2023-09-30T05:38:55;17.50;57.20
56729;DHT22;42612;52.232;7.560;2023-09-30T05:41:21;17.60;57.40
56729;DHT22;42612;52.232;7.560;2023-09-30T05:43:47;17.50;57.40
56729;DHT22;42612;52.232;7.560;2023-09-30T05:46:12;17.50;57.40
56729;DHT22;42612;52.232;7.560;2023-09-30T05:48:38;17.50;57.40
56729;DHT22;42612;52.232;7.560;2023-09-30T05:51:07;17.50;57.50
56729;DHT22;42612;52.232;7.560;2023-09-30T05:53:32;17.50;57.40
56729;DHT22;42612;52.232;7.560;2023-09-30T05:56:01;17.50;57.30
56729;DHT22;42612;52.232;7.560;2023-09-30T05:58:27;17.50;57.10
56729;DHT22;42612;52.232;7.560;2023-09-30T06:00:52;17.50;57.00
56729;DHT22;42612;52.232;7.560;2023-09-30T06:03:18;17.50;57.00
56729;DHT22;42612;52.232;7.560;2023-09-30T06:05:46;17.50;57.00
56729;DHT22;42612;52.232;7.560;2023-09-30T06:08:12;17.40;57.00
56729;DHT22;42612;52.232;7.560;2023-09-30T06:10:41;17.40;56.90
56729;DHT22;42612;52.232;7.560;2023-09-30T06:13:10;17.40;56.90
56729;DHT22;42612;52.232;7.560;2023-09-30T06:15:40;17.50;56.90
56729;DHT22;42612;52.232;7.560;2023-09-30T06:18:07;17.30;56.90
56729;DHT22;42612;52.232;7.560;2023-09-30T06:20:33;17.30;56.90
56729;DHT22;42612;52.232;7.560;2023-09-30T06:22:59;17.30;57.00
56729;DHT22;42612;52.232;7.560;2023-09-30T06:25:27;17.20;57.00
56729;DHT22;42612;52.232;7.560;2023-09-30T06:27:54;17.20;57.10
56729;DHT22;42612;52.232;7.560;2023-09-30T06:30:23;17.20;58.00
56729;DHT22;42612;52.232;7.560;2023-09-30T06:32:55;17.40;57.50
56729;DHT22;42612;52.232;7.560;2023-09-30T06:35:21;17.50;57.70
56729;DHT22;42612;52.232;7.560;2023-09-30T06:37:48;17.20;57.60
56729;DHT22;42612;52.232;7.560;2023-09-30T06:40:14;17.30;57.60
56729;DHT22;42612;52.232;7.560;2023-09-30T06:42:39;17.30;57.70
56729;DHT22;42612;52.232;7.560;2023-09-30T06:45:05;17.30;57.70
56729;DHT22;42612;52.232;7.560;2023-09-30T06:47:32;17.30;57.90
56729;DHT22;42612;52.232;7.560;2023-09-30T06:50:02;17.30;58.00
56729;DHT22;42612;52.232;7.560;2023-09-30T06:52:33;17.40;58.00
56729;DHT22;42612;52.232;7.560;2023-09-30T06:55:00;17.40;58.10
56729;DHT22;42612;52.232;7.560;2023-09-30T06:57:27;17.70;58.40
56729;DHT22;42612;52.232;7.560;2023-09-30T06:59:52;17.40;58.30
56729;DHT22;42612;52.232;7.560;2023-09-30T07:02:18;17.50;58.40
56729;DHT22;42612;52.232;7.560;2023-09-30T07:04:44;17.50;58.40
56729;DHT22;42612;52.232;7.560;2023-09-30T07:07:09;18.00;58.70
56729;DHT22;42612;52.232;7.560;2023-09-30T07:09:35;17.60;58.60
56729;DHT22;42612;52.232;7.560;2023-09-30T07:12:01;17.60;58.70
56729;DHT22;42612;52.232;7.560;2023-09-30T07:14:27;17.70;58.70
56729;DHT22;42612;52.232;7.560;2023-09-30T07:16:53;17.70;58.70
56729;DHT22;42612;52.232;7.560;2023-09-30T07:19:18;17.70;58.70
56729;DHT22;42612;52.232;7.560;2023-09-30T07:21:44;17.70;58.80
56729;DHT22;42612;52.232;7.560;2023-09-30T07:24:11;17.80;58.70
56729;DHT22;42612;52.232;7.560;2023-09-30T07:26:37;18.30;59.10
56729;DHT22;42612;52.232;7.560;2023-09-30T07:29:03;17.90;58.90
56729;DHT22;42612;52.232;7.560;2023-09-30T07:31:32;17.90;58.90
56729;DHT22;42612;52.232;7.560;2023-09-30T07:33:59;17.90;59.00
56729;DHT22;42612;52.232;7.560;2023-09-30T07:36:25;17.90;59.00
56729;DHT22;42612;52.232;7.560;2023-09-30T07:38:51;18.10;59.10
56729;DHT22;42612;52.232;7.560;2023-09-30T07:41:16;18.10;59.10
56729;DHT22;42612;52.232;7.560;2023-09-30T07:43:42;18.10;59.10
56729;DHT22;42612;52.232;7.560;2023-09-30T07:46:08;18.20;59.40
56729;DHT22;42612;52.232;7.560;2023-09-30T07:48:34;18.10;59.20
56729;DHT22;42612;52.232;7.560;2023-09-30T07:51:00;18.20;59.20
56729;DHT22;42612;52.232;7.560;2023-09-30T07:53:27;18.20;59.20
56729;DHT22;42612;52.232;7.560;2023-09-30T07:55:53;18.30;59.50
56729;DHT22;42612;52.232;7.560;2023-09-30T07:58:19;18.30;59.40
56729;DHT22;42612;52.232;7.560;2023-09-30T08:00:45;18.30;59.50
56729;DHT22;42612;52.232;7.560;2023-09-30T08:03:11;18.30;59.50
56729;DHT22;42612;52.232;7.560;2023-09-30T08:05:37;18.40;59.50
56729;DHT22;42612;52.232;7.560;2023-09-30T08:08:03;18.50;59.50
56729;DHT22;42612;52.232;7.560;2023-09-30T08:10:29;18.40;59.50
56729;DHT22;42612;52.232;7.560;2023-09-30T08:12:57;18.50;59.50
56729;DHT22;42612;52.232;7.560;2023-09-30T08:15:24;18.50;59.60
56729;DHT22;42612;52.232;7.560;2023-09-30T08:17:50;18.60;59.60
56729;DHT22;42612;52.232;7.560;2023-09-30T08:20:16;19.20;60.10
56729;DHT22;42612;52.232;7.560;2023-09-30T08:22:41;18.70;60.50
56729;DHT22;42612;52.232;7.560;2023-09-30T08:25:07;18.80;60.10
56729;DHT22;42612;52.232;7.560;2023-09-30T08:27:33;18.80;59.90
56729;DHT22;42612;52.232;7.560;2023-09-30T08:29:59;19.00;60.00
56729;DHT22;42612;52.232;7.560;2023-09-30T08:32:31;19.00;60.20
56729;DHT22;42612;52.232;7.560;2023-09-30T08:34:58;19.00;60.10
56729;DHT22;42612;52.232;7.560;2023-09-30T08:37:23;19.20;60.00
56729;DHT22;42612;52.232;7.560;2023-09-30T08:39:49;19.10;59.90
56729;DHT22;42612;52.232;7.560;2023-09-30T08:42:15;19.20;59.80
56729;DHT22;42612;52.232;7.560;2023-09-30T08:44:43;19.20;59.90
56729;DHT22;42612;52.232;7.560;2023-09-30T08:47:09;19.30;59.90
56729;DHT22;42612;52.232;7.560;2023-09-30T08:49:38;19.40;59.50
56729;DHT22;42612;52.232;7.560;2023-09-30T08:52:07;19.40;59.70
56729;DHT22;42612;52.232;7.560;2023-09-30T08:54:34;19.50;59.80
56729;DHT22;42612;52.232;7.560;2023-09-30T08:57:00;19.50;59.60
56729;DHT22;42612;52.232;7.560;2023-09-30T08:59:28;19.60;60.00
56729;DHT22;42612;52.232;7.560;2023-09-30T09:01:54;19.60;59.50
56729;DHT22;42612;52.232;7.560;2023-09-30T09:04:19;19.60;59.50
56729;DHT22;42612;52.232;7.560;2023-09-30T09:06:45;19.70;59.70
56729;DHT22;42612;52.232;7.560;2023-09-30T09:09:14;19.70;59.50
56729;DHT22;42612;52.232;7.560;2023-09-30T09:11:42;19.80;59.30
56729;DHT22;42612;52.232;7.560;2023-09-30T09:14:09;19.80;59.20
56729;DHT22;42612;52.232;7.560;2023-09-30T09:16:34;19.90;59.30
56729;DHT22;42612;52.232;7.560;2023-09-30T09:19:12;20.00;59.40
56729;DHT22;42612;52.232;7.560;2023-09-30T09:21:39;20.00;59.20
56729;DHT22;42612;52.232;7.560;2023-09-30T09:24:28;20.00;59.00
56729;DHT22;42612;52.232;7.560;2023-09-30T09:27:10;20.00;59.10
56729;DHT22;42612;52.232;7.560;2023-09-30T09:29:37;20.10;59.10
56729;DHT22;42612;52.232;7.560;2023-09-30T09:32:11;20.20;59.80
56729;DHT22;42612;52.232;7.560;2023-09-30T09:34:41;20.20;59.10
56729;DHT22;42612;52.232;7.560;2023-09-30T09:37:15;20.20;59.00
56729;DHT22;42612;52.232;7.560;2023-09-30T09:39:57;20.30;59.00
56729;DHT22;42612;52.232;7.560;2023-09-30T09:42:27;20.30;59.00
56729;DHT22;42612;52.232;7.560;2023-09-30T09:44:54;20.40;59.10
56729;DHT22;42612;52.232;7.560;2023-09-30T09:47:21;20.50;59.00
56729;DHT22;42612;52.232;7.560;2023-09-30T09:49:48;20.50;58.90
56729;DHT22;42612;52.232;7.560;2023-09-30T09:52:15;20.50;58.70
56729;DHT22;42612;52.232;7.560;2023-09-30T09:54:43;20.60;58.70
56729;DHT22;42612;52.232;7.560;2023-09-30T09:57:09;20.60;58.70
56729;DHT22;42612;52.232;7.560;2023-09-30T09:59:36;20.60;58.60
56729;DHT22;42612;52.232;7.560;2023-09-30T10:02:03;20.60;59.20
56729;DHT22;42612;52.232;7.560;2023-09-30T10:04:43;20.60;58.40
56729;DHT22;42612;52.232;7.560;2023-09-30T10:07:20;20.60;58.40
56729;DHT22;42612;52.232;7.560;2023-09-30T10:09:49;20.70;58.30
56729;DHT22;42612;52.232;7.560;2023-09-30T10:12:16;20.70;58.30
56729;DHT22;42612;52.232;7.560;2023-09-30T10:14:43;20.70;58.30
56729;DHT22;42612;52.232;7.560;2023-09-30T10:17:09;20.70;58.20
56729;DHT22;42612;52.232;7.560;2023-09-30T10:19:35;20.60;58.10
56729;DHT22;42612;52.232;7.560;2023-09-30T10:24:42;20.70;58.10
56729;DHT22;42612;52.232;7.560;2023-09-30T10:35:17;20.70;58.10
56729;DHT22;42612;52.232;7.560;2023-09-30T10:37:43;20.70;58.10
56729;DHT22;42612;52.232;7.560;2023-09-30T10:40:10;20.70;58.20
56729;DHT22;42612;52.232;7.560;2023-09-30T10:42:51;20.70;58.20
56729;DHT22;42612;52.232;7.560;2023-09-30T10:50:52;21.00;58.20
56729;DHT22;42612;52.232;7.560;2023-09-30T10:53:22;21.10;57.80
56729;DHT22;42612;52.232;7.560;2023-09-30T10:55:55;21.10;58.10
56729;DHT22;42612;52.232;7.560;2023-09-30T10:58:20;21.20;58.10
56729;DHT22;42612;52.232;7.560;2023-09-30T11:00:53;21.20;58.10
56729;DHT22;42612;52.232;7.560;2023-09-30T11:03:20;21.30;58.00
56729;DHT22;42612;52.232;7.560;2023-09-30T11:05:49;21.30;57.80
56729;DHT22;42612;52.232;7.560;2023-09-30T11:08:17;21.40;57.50
56729;DHT22;42612;52.232;7.560;2023-09-30T11:10:49;21.40;57.30
56729;DHT22;42612;52.232;7.560;2023-09-30T11:13:16;21.40;57.30
56729;DHT22;42612;52.232;7.560;2023-09-30T11:15:45;21.40;57.40
56729;DHT22;42612;52.232;7.560;2023-09-30T11:18:14;21.50;57.60
56729;DHT22;42612;52.232;7.560;2023-09-30T11:20:40;21.50;57.50
56729;DHT22;42612;52.232;7.560;2023-09-30T11:23:07;21.50;57.30
56729;DHT22;42612;52.232;7.560;2023-09-30T11:25:36;21.60;57.20
56729;DHT22;42612;52.232;7.560;2023-09-30T11:28:17;21.60;57.60
56729;DHT22;42612;52.232;7.560;2023-09-30T11:33:19;21.70;56.80
56729;DHT22;42612;52.232;7.560;2023-09-30T11:38:27;21.90;53.90
56729;DHT22;42612;52.232;7.560;2023-09-30T11:40:59;22.00;56.10
56729;DHT22;42612;52.232;7.560;2023-09-30T11:43:31;22.10;56.10
56729;DHT22;42612;52.232;7.560;2023-09-30T11:46:09;22.10;53.00
56729;DHT22;42612;52.232;7.560;2023-09-30T11:49:00;22.20;54.00
56729;DHT22;42612;52.232;7.560;2023-09-30T11:51:26;22.40;55.70
56729;DHT22;42612;52.232;7.560;2023-09-30T11:53:53;22.50;55.80
56729;DHT22;42612;52.232;7.560;2023-09-30T11:56:20;22.60;56.20
56729;DHT22;42612;52.232;7.560;2023-09-30T11:58:47;22.70;56.20
56729;DHT22;42612;52.232;7.560;2023-09-30T12:01:14;22.80;56.60
56729;DHT22;42612;52.232;7.560;2023-09-30T12:03:40;22.80;56.30
56729;DHT22;42612;52.232;7.560;2023-09-30T12:06:05;22.90;56.20
56729;DHT22;42612;52.232;7.560;2023-09-30T12:08:31;22.90;56.10
56729;DHT22;42612;52.232;7.560;2023-09-30T12:10:57;23.00;55.70
56729;DHT22;42612;52.232;7.560;2023-09-30T12:13:25;23.00;55.60
56729;DHT22;42612;52.232;7.560;2023-09-30T12:15:51;23.10;55.70
56729;DHT22;42612;52.232;7.560;2023-09-30T12:18:18;23.20;53.10
56729;DHT22;42612;52.232;7.560;2023-09-30T12:20:49;23.20;54.70
56729;DHT22;42612;52.232;7.560;2023-09-30T12:23:18;23.20;55.30
56729;DHT22;42612;52.232;7.560;2023-09-30T12:25:45;23.20;53.70
56729;DHT22;42612;52.232;7.560;2023-09-30T12:28:12;23.30;53.90
56729;DHT22;42612;52.232;7.560;2023-09-30T12:30:39;23.20;54.30
56729;DHT22;42612;52.232;7.560;2023-09-30T12:33:05;23.20;54.60
56729;DHT22;42612;52.232;7.560;2023-09-30T12:35:32;23.20;55.70
56729;DHT22;42612;52.232;7.560;2023-09-30T12:37:58;23.20;55.10
56729;DHT22;42612;52.232;7.560;2023-09-30T12:40:24;23.20;54.30
56729;DHT22;42612;52.232;7.560;2023-09-30T12:42:49;23.20;54.20
56729;DHT22;42612;52.232;7.560;2023-09-30T12:45:15;23.20;50.30
56729;DHT22;42612;52.232;7.560;2023-09-30T12:47:43;23.20;53.00
56729;DHT22;42612;52.232;7.560;2023-09-30T12:50:09;23.20;53.50
56729;DHT22;42612;52.232;7.560;2023-09-30T12:52:35;23.20;54.40
56729;DHT22;42612;52.232;7.560;2023-09-30T12:55:01;23.30;54.60
56729;DHT22;42612;52.232;7.560;2023-09-30T12:57:27;23.30;55.00
56729;DHT22;42612;52.232;7.560;2023-09-30T12:59:53;23.40;54.20
56729;DHT22;42612;52.232;7.560;2023-09-30T13:02:18;23.50;54.90
56729;DHT22;42612;52.232;7.560;2023-09-30T13:04:44;23.50;54.50
56729;DHT22;42612;52.232;7.560;2023-09-30T13:07:10;23.60;54.30
56729;DHT22;42612;52.232;7.560;2023-09-30T13:09:37;23.70;53.90
56729;DHT22;42612;52.232;7.560;2023-09-30T13:12:04;23.70;53.90
56729;DHT22;42612;52.232;7.560;2023-09-30T13:14:30;23.80;54.10
56729;DHT22;42612;52.232;7.560;2023-09-30T13:16:55;23.90;54.50
56729;DHT22;42612;52.232;7.560;2023-09-30T13:19:21;24.00;54.60
56729;DHT22;42612;52.232;7.560;2023-09-30T13:21:50;24.00;54.50
56729;DHT22;42612;52.232;7.560;2023-09-30T13:24:21;24.10;53.50
56729;DHT22;42612;52.232;7.560;2023-09-30T13:26:47;24.20;54.30
56729;DHT22;42612;52.232;7.560;2023-09-30T13:29:13;24.30;54.70
56729;DHT22;42612;52.232;7.560;2023-09-30T13:31:42;24.30;51.10
56729;DHT22;42612;52.232;7.560;2023-09-30T13:34:08;24.40;46.90
56729;DHT22;42612;52.232;7.560;2023-09-30T13:36:34;24.40;48.80
56729;DHT22;42612;52.232;7.560;2023-09-30T13:39:00;24.40;50.70
56729;DHT22;42612;52.232;7.560;2023-09-30T13:41:26;24.40;52.50
56729;DHT22;42612;52.232;7.560;2023-09-30T13:43:52;24.50;52.50
56729;DHT22;42612;52.232;7.560;2023-09-30T13:46:18;24.40;52.30
56729;DHT22;42612;52.232;7.560;2023-09-30T13:48:44;24.30;52.70
56729;DHT22;42612;52.232;7.560;2023-09-30T13:51:10;24.20;52.60
56729;DHT22;42612;52.232;7.560;2023-09-30T13:53:38;24.20;52.90
56729;DHT22;42612;52.232;7.560;2023-09-30T13:56:04;24.10;52.50
56729;DHT22;42612;52.232;7.560;2023-09-30T13:58:32;24.00;52.10
56729;DHT22;42612;52.232;7.560;2023-09-30T14:00:57;24.00;52.40
56729;DHT22;42612;52.232;7.560;2023-09-30T14:03:23;23.80;52.60
56729;DHT22;42612;52.232;7.560;2023-09-30T14:05:51;23.70;52.20
56729;DHT22;42612;52.232;7.560;2023-09-30T14:08:18;23.70;52.20
56729;DHT22;42612;52.232;7.560;2023-09-30T14:10:44;23.60;52.30
56729;DHT22;42612;52.232;7.560;2023-09-30T14:13:10;23.50;52.30
56729;DHT22;42612;52.232;7.560;2023-09-30T14:15:36;23.50;52.10
56729;DHT22;42612;52.232;7.560;2023-09-30T14:18:02;23.40;52.20
56729;DHT22;42612;52.232;7.560;2023-09-30T14:20:29;23.40;52.40
56729;DHT22;42612;52.232;7.560;2023-09-30T14:22:55;23.30;52.20
56729;DHT22;42612;52.232;7.560;2023-09-30T14:25:23;23.30;52.70
56729;DHT22;42612;52.232;7.560;2023-09-30T14:27:49;23.30;52.50
56729;DHT22;42612;52.232;7.560;2023-09-30T14:30:15;23.30;52.90
56729;DHT22;42612;52.232;7.560;2023-09-30T14:32:41;23.30;52.90
56729;DHT22;42612;52.232;7.560;2023-09-30T14:35:07;23.40;52.80
56729;DHT22;42612;52.232;7.560;2023-09-30T14:37:34;23.40;52.50
56729;DHT22;42612;52.232;7.560;2023-09-30T14:40:00;23.50;52.40
56729;DHT22;42612;52.232;7.560;2023-09-30T14:42:26;23.50;53.60
56729;DHT22;42612;52.232;7.560;2023-09-30T14:44:52;23.60;52.40
56729;DHT22;42612;52.232;7.560;2023-09-30T14:47:20;23.50;52.30
56729;DHT22;42612;52.232;7.560;2023-09-30T14:49:46;23.50;52.00
56729;DHT22;42612;52.232;7.560;2023-09-30T14:52:11;23.50;52.00
56729;DHT22;42612;52.232;7.560;2023-09-30T14:54:37;23.50;52.00
56729;DHT22;42612;52.232;7.560;2023-09-30T14:57:02;23.50;51.80
56729;DHT22;42612;52.232;7.560;2023-09-30T14:59:28;23.50;51.70
56729;DHT22;42612;52.232;7.560;2023-09-30T15:01:53;23.40;51.70
56729;DHT22;42612;52.232;7.560;2023-09-30T15:04:19;23.40;51.90
56729;DHT22;42612;52.232;7.560;2023-09-30T15:06:45;23.40;51.70
56729;DHT22;42612;52.232;7.560;2023-09-30T15:09:11;23.40;51.70
56729;DHT22;42612;52.232;7.560;2023-09-30T15:11:40;23.40;51.60
56729;DHT22;42612;52.232;7.560;2023-09-30T15:14:06;23.40;51.50
56729;DHT22;42612;52.232;7.560;2023-09-30T15:16:32;23.30;51.60
56729;DHT22;42612;52.232;7.560;2023-09-30T15:18:57;23.30;51.70
56729;DHT22;42612;52.232;7.560;2023-09-30T15:21:23;23.30;51.30
56729;DHT22;42612;52.232;7.560;2023-09-30T15:23:51;23.30;51.50
56729;DHT22;42612;52.232;7.560;2023-09-30T15:26:17;23.20;51.40
56729;DHT22;42612;52.232;7.560;2023-09-30T15:28:43;23.20;51.60
56729;DHT22;42612;52.232;7.560;2023-09-30T15:31:10;23.20;51.60
56729;DHT22;42612;52.232;7.560;2023-09-30T15:33:36;23.20;51.60
56729;DHT22;42612;52.232;7.560;2023-09-30T15:36:11;23.20;51.70
56729;DHT22;42612;52.232;7.560;2023-09-30T15:38:38;23.10;51.50
56729;DHT22;42612;52.232;7.560;2023-09-30T15:41:04;23.20;51.60
56729;DHT22;42612;52.232;7.560;2023-09-30T15:43:30;23.10;51.60
56729;DHT22;42612;52.232;7.560;2023-09-30T15:45:57;23.20;51.60
56729;DHT22;42612;52.232;7.560;2023-09-30T15:48:23;23.10;51.60
56729;DHT22;42612;52.232;7.560;2023-09-30T15:50:49;23.20;51.70